createdAt,value
2019-05-22T00:01:50.966Z,3.67
2019-05-22T00:04:25.632Z,2.37
2019-05-22T00:07:00.779Z,4.30
2019-05-22T00:09:44.690Z,4.27
2019-05-22T00:12:20.380Z,2.90
2019-05-22T00:14:52.789Z,3.00
2019-05-22T00:17:32.192Z,3.00
2019-05-22T00:20:06.169Z,4.00
2019-05-22T00:22:39.199Z,5.80
2019-05-22T00:25:13.869Z,9.30
2019-05-22T00:27:47.019Z,8.40
2019-05-22T00:30:20.449Z,7.90
2019-05-22T00:32:51.674Z,6.40
2019-05-22T00:35:24.651Z,5.23
2019-05-22T00:37:57.161Z,7.53
2019-05-22T00:40:31.617Z,13.90
2019-05-22T00:43:10.838Z,8.27
2019-05-22T00:45:37.216Z,5.83
2019-05-22T00:48:08.968Z,4.03
2019-05-22T00:50:47.211Z,2.63
2019-05-22T00:53:29.621Z,2.00
2019-05-22T00:56:19.546Z,2.60
2019-05-22T00:58:58.357Z,3.10
2019-05-22T01:01:44.835Z,2.67
2019-05-22T01:04:20.362Z,1.93
2019-05-22T01:06:52.579Z,2.30
2019-05-22T01:09:41.925Z,2.10
2019-05-22T01:12:21.805Z,1.30
2019-05-22T01:14:54.525Z,2.20
2019-05-22T01:17:27.617Z,2.30
2019-05-22T01:20:01.048Z,2.20
2019-05-22T01:22:36.486Z,2.80
2019-05-22T01:25:11.813Z,2.57
2019-05-22T01:27:46.012Z,2.40
2019-05-22T01:30:26.516Z,2.53
2019-05-22T01:32:59.667Z,1.80
2019-05-22T01:35:36.667Z,2.20
2019-05-22T01:38:11.914Z,4.20
2019-05-22T01:40:53.531Z,2.50
2019-05-22T01:43:27.357Z,4.37
2019-05-22T01:46:01.463Z,3.67
2019-05-22T01:48:38.425Z,4.13
2019-05-22T01:51:11.850Z,3.40
2019-05-22T01:53:44.112Z,3.47
2019-05-22T01:56:17.006Z,4.03
2019-05-22T01:58:49.831Z,3.50
2019-05-22T02:01:24.411Z,5.87
2019-05-22T02:03:56.936Z,3.97
2019-05-22T02:06:28.315Z,3.83
2019-05-22T02:09:18.031Z,6.90
2019-05-22T02:11:54.275Z,6.17
2019-05-22T02:14:25.420Z,5.03
2019-05-22T02:16:58.135Z,8.73
2019-05-22T02:19:30.236Z,5.47
2019-05-22T02:22:01.765Z,6.40
2019-05-22T02:24:34.007Z,6.03
2019-05-22T02:27:06.246Z,6.63
2019-05-22T02:29:38.056Z,5.37
2019-05-22T02:32:11.693Z,5.47
2019-05-22T02:34:45.052Z,4.93
2019-05-22T02:37:17.119Z,7.17
2019-05-22T02:39:49.218Z,8.13
2019-05-22T02:42:28.681Z,7.60
2019-05-22T02:45:00.704Z,8.70
2019-05-22T02:47:32.101Z,8.33
2019-05-22T02:50:05.007Z,12.27
2019-05-22T02:52:36.592Z,9.00
2019-05-22T02:55:08.717Z,11.73
2019-05-22T02:57:40.714Z,14.77
2019-05-22T03:00:15.042Z,14.37
2019-05-22T03:02:53.660Z,13.03
2019-05-22T03:05:25.273Z,13.10
2019-05-22T03:07:57.528Z,12.37
2019-05-22T03:10:29.513Z,13.50
2019-05-22T03:13:01.740Z,14.00
2019-05-22T03:15:32.895Z,16.67
2019-05-22T03:18:09.260Z,15.50
2019-05-22T03:20:42.144Z,18.67
2019-05-22T03:23:38.994Z,19.07
2019-05-22T03:26:13.361Z,21.70
2019-05-22T03:28:46.051Z,16.47
2019-05-22T03:31:18.611Z,15.93
2019-05-22T03:33:50.722Z,14.60
2019-05-22T03:36:22.736Z,12.37
2019-05-22T03:38:54.080Z,11.93
2019-05-22T03:41:25.876Z,10.87
2019-05-22T03:43:58.516Z,11.80
2019-05-22T03:46:39.025Z,12.30
2019-05-22T03:49:29.186Z,11.47
2019-05-22T03:51:49.302Z,11.17
2019-05-22T03:54:21.871Z,10.30
2019-05-22T03:56:54.661Z,11.33
2019-05-22T03:59:25.950Z,14.27
2019-05-22T04:01:57.412Z,15.50
2019-05-22T04:04:40.483Z,13.73
2019-05-22T04:07:19.514Z,14.27
2019-05-22T04:09:53.482Z,16.00
2019-05-22T04:12:24.898Z,12.70
2019-05-22T04:14:57.042Z,13.60
2019-05-22T04:17:30.083Z,14.90
2019-05-22T04:20:01.600Z,13.50
2019-05-22T04:22:33.480Z,16.07
2019-05-22T04:25:05.200Z,15.40
2019-05-22T04:27:36.365Z,15.97
2019-05-22T04:30:10.584Z,15.40
2019-05-22T04:32:44.371Z,15.37
2019-05-22T04:35:19.828Z,17.07
2019-05-22T04:37:51.420Z,20.67
2019-05-22T04:40:54.362Z,17.60
2019-05-22T04:43:34.169Z,19.27
2019-05-22T04:46:09.744Z,22.53
2019-05-22T04:48:45.573Z,23.70
2019-05-22T04:51:31.078Z,26.67
2019-05-22T04:54:02.446Z,24.17
2019-05-22T04:56:33.711Z,24.87
2019-05-22T04:59:06.102Z,22.90
2019-05-22T05:01:38.743Z,23.47
2019-05-22T05:04:10.530Z,29.00
2019-05-22T05:06:41.915Z,26.10
2019-05-22T05:09:14.965Z,26.63
2019-05-22T05:11:46.392Z,24.20
2019-05-22T05:14:17.575Z,29.67
2019-05-22T05:16:48.772Z,26.17
2019-05-22T05:19:20.561Z,28.87
2019-05-22T05:21:52.350Z,23.00
2019-05-22T05:24:24.008Z,27.17
2019-05-22T05:26:55.959Z,21.93
2019-05-22T05:29:30.291Z,34.70
2019-05-22T05:32:02.923Z,21.40
2019-05-22T05:34:45.508Z,21.20
2019-05-22T05:37:20.318Z,23.13
2019-05-22T05:40:33.818Z,21.03
2019-05-22T05:43:07.699Z,21.53
2019-05-22T05:45:42.406Z,25.77
2019-05-22T05:48:44.103Z,32.47
2019-05-22T05:51:39.197Z,30.47
2019-05-22T05:54:15.348Z,29.10
2019-05-22T05:56:50.682Z,39.93
2019-05-22T05:59:28.601Z,31.80
2019-05-22T06:02:00.646Z,33.50
2019-05-22T06:04:38.947Z,34.77
2019-05-22T06:07:24.200Z,39.27
2019-05-22T06:10:59.352Z,39.73
2019-05-22T06:13:30.629Z,42.00
2019-05-22T06:17:01.468Z,37.53
2019-05-22T06:19:32.569Z,34.87
2019-05-22T06:22:04.232Z,37.63
2019-05-22T06:24:59.854Z,43.23
2019-05-22T06:27:54.826Z,39.00
2019-05-22T06:30:44.452Z,41.83
2019-05-22T06:33:36.059Z,40.20
2019-05-22T06:36:14.420Z,41.47
2019-05-22T06:38:57.390Z,37.27
2019-05-22T06:41:32.902Z,35.43
2019-05-22T06:44:39.835Z,34.97
2019-05-22T06:47:24.204Z,33.13
2019-05-22T06:49:57.277Z,33.53
2019-05-22T06:52:29.307Z,44.70
2019-05-22T06:55:00.723Z,34.43
2019-05-22T06:57:35.271Z,38.07
2019-05-22T07:00:20.243Z,38.63
2019-05-22T07:02:51.741Z,35.87
2019-05-22T07:05:23.994Z,36.07
2019-05-22T07:07:56.937Z,34.60
2019-05-22T07:10:28.078Z,29.97
2019-05-22T07:13:00.677Z,29.50
2019-05-22T07:16:02.014Z,30.80
2019-05-22T07:18:33.188Z,30.70
2019-05-22T07:21:04.871Z,31.07
2019-05-22T07:23:37.768Z,34.10
2019-05-22T07:26:09.348Z,32.60
2019-05-22T07:28:41.339Z,30.53
2019-05-22T07:31:13.180Z,30.30
2019-05-22T07:33:45.672Z,31.63
2019-05-22T07:36:17.801Z,35.30
2019-05-22T07:38:49.602Z,36.80
2019-05-22T07:41:21.030Z,34.43
2019-05-22T07:43:52.546Z,30.20
2019-05-22T07:46:24.932Z,26.13
2019-05-22T07:48:56.883Z,29.30
2019-05-22T07:51:28.301Z,28.50
2019-05-22T07:53:59.747Z,23.40
2019-05-22T07:56:31.956Z,23.90
2019-05-22T07:59:04.185Z,22.40
2019-05-22T08:01:35.917Z,25.13
2019-05-22T08:04:07.382Z,23.77
2019-05-22T08:06:39.215Z,26.07
2019-05-22T08:09:12.137Z,22.50
2019-05-22T08:11:44.048Z,20.27
2019-05-22T08:14:15.293Z,20.03
2019-05-22T08:16:47.420Z,24.20
2019-05-22T08:19:18.948Z,24.93
2019-05-22T08:22:04.678Z,24.93
2019-05-22T08:24:23.855Z,24.33
2019-05-22T08:26:55.550Z,24.83
2019-05-22T08:29:27.881Z,24.77
2019-05-22T08:32:00.475Z,25.60
2019-05-22T08:34:32.651Z,28.80
2019-05-22T08:37:08.981Z,26.73
2019-05-22T08:39:40.981Z,28.50
2019-05-22T08:42:15.573Z,29.43
2019-05-22T08:44:47.166Z,24.43
2019-05-22T08:47:19.253Z,24.97
2019-05-22T08:49:51.539Z,25.47
2019-05-22T08:52:24.449Z,27.30
2019-05-22T08:54:56.837Z,27.87
2019-05-22T08:57:28.342Z,25.00
2019-05-22T08:59:59.803Z,23.60
2019-05-22T09:02:31.610Z,23.33
2019-05-22T09:05:03.327Z,23.77
2019-05-22T09:07:35.777Z,26.70
2019-05-22T09:10:07.702Z,25.77
2019-05-22T09:12:39.027Z,23.47
2019-05-22T09:15:12.047Z,25.67
2019-05-22T09:17:43.500Z,21.87
2019-05-22T09:20:15.497Z,24.57
2019-05-22T09:22:47.371Z,20.90
2019-05-22T09:25:18.799Z,21.97
2019-05-22T09:27:50.632Z,24.23
2019-05-22T09:30:22.573Z,25.03
2019-05-22T09:32:54.349Z,24.60
2019-05-22T09:35:26.310Z,20.23
2019-05-22T09:37:57.685Z,20.70
2019-05-22T09:40:29.339Z,21.07
2019-05-22T09:43:00.530Z,21.50
2019-05-22T09:45:31.837Z,23.37
2019-05-22T09:48:03.315Z,20.33
2019-05-22T09:50:34.973Z,21.57
2019-05-22T09:53:07.727Z,23.50
2019-05-22T09:55:39.309Z,19.87
2019-05-22T09:58:10.622Z,23.23
2019-05-22T10:00:41.853Z,22.20
2019-05-22T10:03:13.173Z,20.50
2019-05-22T10:05:44.471Z,23.77
2019-05-22T10:08:15.845Z,22.50
2019-05-22T10:10:47.142Z,23.43
2019-05-22T10:13:18.526Z,26.70
2019-05-22T10:15:50.085Z,24.73
2019-05-22T10:18:21.455Z,23.63
2019-05-22T10:20:52.761Z,25.83
2019-05-22T10:23:24.695Z,21.60
2019-05-22T10:25:55.828Z,20.87
2019-05-22T10:28:28.245Z,21.10
2019-05-22T10:31:00.164Z,21.00
2019-05-22T10:33:31.822Z,23.30
2019-05-22T10:36:02.939Z,22.83
2019-05-22T10:38:34.464Z,25.13
2019-05-22T10:41:06.413Z,26.50
2019-05-22T10:43:38.010Z,24.37
2019-05-22T10:46:10.059Z,21.23
2019-05-22T10:48:42.691Z,24.47
2019-05-22T10:51:13.976Z,28.23
2019-05-22T10:53:45.764Z,26.47
2019-05-22T10:56:16.979Z,24.57
2019-05-22T10:58:48.240Z,24.00
2019-05-22T11:01:19.534Z,27.60
2019-05-22T11:03:51.598Z,25.33
2019-05-22T11:06:23.583Z,26.50
2019-05-22T11:08:54.833Z,23.23
2019-05-22T11:11:26.788Z,26.53
2019-05-22T11:14:01.723Z,25.70
2019-05-22T11:16:32.444Z,27.13
2019-05-22T11:19:04.737Z,28.87
2019-05-22T11:21:36.016Z,25.77
2019-05-22T11:24:07.960Z,27.37
2019-05-22T11:26:39.161Z,25.40
2019-05-22T11:29:10.637Z,25.53
2019-05-22T11:31:42.562Z,25.27
2019-05-22T11:34:14.764Z,23.83
2019-05-22T11:36:46.001Z,25.40
2019-05-22T11:39:29.666Z,26.37
2019-05-22T11:41:52.835Z,24.17
2019-05-22T11:44:24.321Z,24.70
2019-05-22T11:46:55.428Z,26.50
2019-05-22T11:49:27.064Z,26.13
2019-05-22T11:51:58.407Z,26.10
2019-05-22T11:54:30.703Z,24.83
2019-05-22T11:57:02.152Z,27.93
2019-05-22T11:59:33.434Z,25.43
2019-05-22T12:02:05.517Z,24.10
2019-05-22T12:04:47.399Z,27.20
2019-05-22T12:07:11.078Z,26.37
2019-05-22T12:09:42.304Z,28.10
2019-05-22T12:12:16.328Z,27.97
2019-05-22T12:14:47.980Z,28.37
2019-05-22T12:17:36.748Z,31.87
2019-05-22T12:19:53.147Z,33.27
2019-05-22T12:22:24.506Z,34.90
2019-05-22T12:24:55.883Z,32.57
2019-05-22T12:27:27.060Z,32.57
2019-05-22T12:29:58.246Z,33.13
2019-05-22T12:32:32.144Z,35.60
2019-05-22T12:35:03.713Z,33.80
2019-05-22T12:37:36.309Z,35.20
2019-05-22T12:40:08.571Z,31.97
2019-05-22T12:42:40.346Z,28.37
2019-05-22T12:45:14.239Z,30.40
2019-05-22T12:47:45.442Z,29.70
2019-05-22T12:50:20.452Z,28.80
2019-05-22T12:52:52.158Z,28.83
2019-05-22T12:55:23.300Z,26.83
2019-05-22T12:57:54.828Z,26.47
2019-05-22T13:00:28.625Z,23.50
2019-05-22T13:03:01.893Z,24.67
2019-05-22T13:05:35.633Z,26.67
2019-05-22T13:08:07.950Z,27.40
2019-05-22T13:10:40.206Z,25.70
2019-05-22T13:13:11.953Z,26.10
2019-05-22T13:15:44.531Z,26.20
2019-05-22T13:18:18.847Z,25.70
2019-05-22T13:20:52.918Z,24.50
2019-05-22T13:23:29.077Z,27.07
2019-05-22T13:26:00.385Z,26.10
2019-05-22T13:28:31.960Z,25.87
2019-05-22T13:31:03.507Z,23.63
2019-05-22T13:33:38.527Z,24.73
2019-05-22T13:36:12.956Z,24.83
2019-05-22T13:38:44.553Z,26.67
2019-05-22T13:41:16.275Z,27.20
2019-05-22T13:43:48.019Z,29.40
2019-05-22T13:46:20.020Z,30.10
2019-05-22T13:48:51.301Z,29.90
2019-05-22T13:51:23.160Z,29.00
2019-05-22T13:53:55.488Z,29.33
2019-05-22T13:56:26.698Z,29.30
2019-05-22T13:58:58.927Z,29.23
2019-05-22T14:01:31.319Z,29.43
2019-05-22T14:04:03.121Z,30.17
2019-05-22T14:06:34.348Z,29.03
2019-05-22T14:09:11.274Z,26.87
2019-05-22T14:11:44.324Z,29.07
2019-05-22T14:14:15.616Z,31.07
2019-05-22T14:16:49.013Z,31.50
2019-05-22T14:19:21.066Z,33.17
2019-05-22T14:21:52.549Z,33.57
2019-05-22T14:24:23.994Z,32.30
2019-05-22T14:26:55.178Z,33.50
2019-05-22T14:29:26.620Z,32.67
2019-05-22T14:31:58.100Z,32.53
2019-05-22T14:34:29.965Z,32.47
2019-05-22T14:37:01.517Z,31.57
2019-05-22T14:39:33.299Z,33.07
2019-05-22T14:42:04.755Z,31.97
2019-05-22T14:44:36.029Z,34.40
2019-05-22T14:47:14.495Z,32.27
2019-05-22T14:49:40.343Z,34.40
2019-05-22T14:52:11.897Z,32.57
2019-05-22T14:54:43.166Z,34.93
2019-05-22T14:57:15.177Z,31.13
2019-05-22T14:59:47.505Z,32.63
2019-05-22T15:02:18.884Z,33.60
2019-05-22T15:04:50.596Z,32.23
2019-05-22T15:07:21.775Z,32.73
2019-05-22T15:09:53.049Z,31.57
2019-05-22T15:12:24.312Z,33.27
2019-05-22T15:14:55.945Z,32.40
2019-05-22T15:17:32.431Z,32.27
2019-05-22T15:20:00.958Z,31.20
2019-05-22T15:22:33.449Z,29.90
2019-05-22T15:25:05.718Z,30.80
2019-05-22T15:27:38.354Z,32.03
2019-05-22T15:30:11.356Z,28.73
2019-05-22T15:32:42.728Z,28.87
2019-05-22T15:35:14.435Z,29.83
2019-05-22T15:37:46.543Z,27.27
2019-05-22T15:40:18.538Z,28.73
2019-05-22T15:42:50.713Z,26.57
2019-05-22T15:45:24.468Z,26.53
2019-05-22T15:47:58.513Z,25.57
2019-05-22T15:50:33.912Z,24.20
2019-05-22T15:53:13.304Z,24.27
2019-05-22T15:55:44.179Z,26.43
2019-05-22T15:58:18.052Z,25.60
2019-05-22T16:00:50.753Z,24.40
2019-05-22T16:03:26.748Z,26.17
2019-05-22T16:05:59.810Z,24.50
2019-05-22T16:08:31.571Z,25.53
2019-05-22T16:11:06.691Z,23.53
2019-05-22T16:13:38.754Z,23.37
2019-05-22T16:16:13.078Z,23.43
2019-05-22T16:18:48.636Z,22.33
2019-05-22T16:21:20.824Z,24.90
2019-05-22T16:23:53.046Z,23.63
2019-05-22T16:26:24.687Z,25.03
2019-05-22T16:28:56.979Z,24.10
2019-05-22T16:31:28.843Z,24.93
2019-05-22T16:34:00.706Z,24.10
2019-05-22T16:36:33.291Z,25.33
2019-05-22T16:39:06.626Z,26.27
2019-05-22T16:41:38.634Z,24.43
2019-05-22T16:44:10.384Z,24.60
2019-05-22T16:46:42.820Z,24.73
2019-05-22T16:49:15.082Z,24.83
2019-05-22T16:51:47.336Z,23.43
2019-05-22T16:54:21.130Z,22.50
2019-05-22T16:56:53.850Z,20.57
2019-05-22T16:59:24.937Z,22.13
2019-05-22T17:02:00.307Z,22.77
2019-05-22T17:04:31.120Z,21.73
2019-05-22T17:07:05.236Z,22.23
2019-05-22T17:09:36.620Z,20.80
2019-05-22T17:12:09.695Z,19.20
2019-05-22T17:14:41.927Z,18.37
2019-05-22T17:17:15.851Z,16.80
2019-05-22T17:19:47.815Z,17.60
2019-05-22T17:22:20.247Z,16.67
2019-05-22T17:24:51.861Z,15.53
2019-05-22T17:27:23.603Z,14.77
2019-05-22T17:29:55.559Z,15.50
2019-05-22T17:32:28.513Z,16.50
2019-05-22T17:35:00.468Z,16.47
2019-05-22T17:37:35.114Z,14.90
2019-05-22T17:40:08.739Z,14.10
2019-05-22T17:42:42.583Z,15.33
2019-05-22T17:45:17.061Z,14.13
2019-05-22T17:47:48.638Z,15.27
2019-05-22T17:50:26.890Z,13.87
2019-05-22T17:52:56.852Z,13.93
2019-05-22T17:55:30.060Z,12.57
2019-05-22T17:58:01.271Z,14.97
2019-05-22T18:00:39.100Z,13.60
2019-05-22T18:03:10.499Z,14.77
2019-05-22T18:05:41.976Z,14.70
2019-05-22T18:08:14.039Z,14.83
2019-05-22T18:10:49.595Z,13.70
2019-05-22T18:13:21.212Z,14.90
2019-05-22T18:15:52.760Z,14.43
2019-05-22T18:18:24.193Z,14.13
2019-05-22T18:20:55.376Z,13.47
2019-05-22T18:23:26.648Z,13.13
2019-05-22T18:25:57.878Z,12.40
2019-05-22T18:28:29.283Z,12.00
2019-05-22T18:31:00.869Z,11.83
2019-05-22T18:33:32.125Z,11.37
2019-05-22T18:36:03.384Z,10.13
2019-05-22T18:38:34.527Z,11.30
2019-05-22T18:41:05.760Z,10.53
2019-05-22T18:43:37.645Z,10.10
2019-05-22T18:46:09.623Z,10.40
2019-05-22T18:48:40.800Z,12.10
2019-05-22T18:51:12.221Z,11.03
2019-05-22T18:53:43.850Z,11.13
2019-05-22T18:56:15.165Z,11.60
2019-05-22T18:58:47.127Z,10.80
2019-05-22T19:01:18.884Z,10.27
2019-05-22T19:03:50.015Z,11.20
2019-05-22T19:06:30.314Z,11.40
2019-05-22T19:08:54.821Z,10.13
2019-05-22T19:11:26.155Z,11.00
2019-05-22T19:13:57.373Z,12.53
2019-05-22T19:16:28.763Z,11.37
2019-05-22T19:19:00.299Z,11.40
2019-05-22T19:21:31.507Z,11.30
2019-05-22T19:24:02.788Z,11.30
2019-05-22T19:26:33.896Z,11.70
2019-05-22T19:29:05.581Z,10.00
2019-05-22T19:31:36.907Z,11.23
2019-05-22T19:34:08.565Z,11.77
2019-05-22T19:36:39.800Z,10.67
2019-05-22T19:39:11.433Z,11.83
2019-05-22T19:41:42.743Z,11.17
2019-05-22T19:44:14.317Z,11.10
2019-05-22T19:46:46.219Z,11.50
2019-05-22T19:49:17.952Z,10.27
2019-05-22T19:51:51.126Z,10.80
2019-05-22T19:54:22.212Z,10.70
2019-05-22T19:56:53.431Z,10.27
2019-05-22T20:02:10.562Z,10.03
2019-05-22T20:04:42.378Z,11.37
2019-05-22T20:07:14.443Z,12.30
2019-05-22T20:09:46.349Z,12.90
2019-05-22T20:12:19.058Z,12.80
2019-05-22T20:14:50.642Z,13.70
2019-05-22T20:17:21.695Z,12.90
2019-05-22T20:19:53.655Z,12.93
2019-05-22T20:22:26.052Z,14.00
2019-05-22T20:24:57.321Z,12.63
2019-05-22T20:27:28.499Z,12.43
2019-05-22T20:29:59.644Z,13.90
2019-05-22T20:32:30.932Z,13.03
2019-05-22T20:35:02.347Z,16.40
2019-05-22T20:37:33.648Z,15.17
2019-05-22T20:40:06.524Z,14.20
2019-05-22T20:42:38.076Z,15.80
2019-05-22T20:45:10.785Z,15.43
2019-05-22T20:47:43.885Z,15.70
2019-05-22T20:50:15.795Z,15.37
2019-05-22T20:52:49.441Z,14.37
2019-05-22T20:55:21.556Z,16.40
2019-05-22T20:57:53.089Z,14.60
2019-05-22T21:00:28.292Z,14.97
2019-05-22T21:03:08.275Z,14.27
2019-05-22T21:05:41.852Z,13.67
2019-05-22T21:08:16.067Z,15.43
2019-05-22T21:10:50.239Z,16.03
2019-05-22T21:13:21.616Z,17.47
2019-05-22T21:15:55.262Z,16.67
2019-05-22T21:18:33.786Z,15.07
2019-05-22T21:21:07.150Z,16.67
2019-05-22T21:23:40.453Z,16.20
2019-05-22T21:26:12.781Z,16.13
2019-05-22T21:28:45.089Z,16.30
2019-05-22T21:31:17.159Z,16.67
2019-05-22T21:33:48.349Z,16.40
2019-05-22T21:36:20.557Z,17.30
2019-05-22T21:38:52.370Z,18.07
2019-05-22T21:41:24.305Z,17.63
2019-05-22T21:43:56.082Z,18.63
2019-05-22T21:46:27.637Z,18.10
2019-05-22T21:48:59.368Z,18.13
2019-05-22T21:51:31.757Z,18.93
2019-05-22T21:54:04.934Z,18.00
2019-05-22T21:56:37.017Z,18.93
2019-05-22T21:59:08.841Z,18.17
2019-05-22T22:01:58.919Z,19.77
2019-05-22T22:04:34.025Z,18.70
2019-05-22T22:07:05.906Z,17.90
2019-05-22T22:09:38.254Z,20.53
2019-05-22T22:12:10.799Z,20.90
2019-05-22T22:14:43.154Z,20.80
2019-05-22T22:17:16.738Z,19.30
2019-05-22T22:19:49.272Z,19.10
2019-05-22T22:22:28.221Z,20.60
2019-05-22T22:24:59.722Z,19.50
2019-05-22T22:27:32.185Z,19.03
2019-05-22T22:30:05.656Z,19.10
2019-05-22T22:32:38.086Z,19.63
2019-05-22T22:35:12.467Z,21.93
2019-05-22T22:37:43.949Z,19.70
2019-05-22T22:40:17.929Z,19.00
2019-05-22T22:42:50.808Z,19.10
2019-05-22T22:45:30.483Z,21.27
2019-05-22T22:48:01.955Z,19.40
2019-05-22T22:50:33.244Z,21.03
2019-05-22T22:53:04.799Z,19.03
2019-05-22T22:55:37.978Z,19.57
2019-05-22T22:58:17.201Z,20.90
2019-05-22T23:00:45.794Z,26.27
2019-05-22T23:03:21.970Z,20.63
2019-05-22T23:05:53.831Z,25.17
2019-05-22T23:08:30.641Z,21.97
2019-05-22T23:11:03.007Z,21.90
2019-05-22T23:13:35.775Z,22.27
2019-05-22T23:16:07.930Z,22.60
2019-05-22T23:19:44.632Z,22.47
2019-05-22T23:22:17.812Z,21.80
2019-05-22T23:24:51.964Z,21.13
2019-05-22T23:27:25.448Z,21.77
2019-05-22T23:29:57.707Z,20.37
2019-05-22T23:32:29.495Z,22.73
2019-05-22T23:35:02.168Z,20.57
2019-05-22T23:37:34.270Z,20.80
2019-05-22T23:40:06.919Z,21.50
2019-05-22T23:42:41.720Z,20.57
2019-05-22T23:45:17.120Z,20.83
2019-05-22T23:48:06.991Z,20.23
2019-05-22T23:50:40.350Z,21.37
2019-05-22T23:53:13.504Z,22.10
2019-05-22T23:55:45.464Z,22.07
2019-05-22T23:58:17.807Z,18.73
